createdAt,value
2022-08-21T00:00:20.201Z,100143.13
2022-08-21T00:05:21.353Z,100144.94
2022-08-21T00:10:22.646Z,100144.69
2022-08-21T00:15:27.935Z,100150.66
2022-08-21T00:20:28.827Z,100145.06
2022-08-21T00:25:29.513Z,100145.06
2022-08-21T00:30:32.770Z,100137.28
2022-08-21T00:35:36.895Z,100141.38
2022-08-21T00:40:45.296Z,100142.34
2022-08-21T00:45:47.492Z,100141.44
2022-08-21T00:50:52.779Z,100143.00
2022-08-21T00:55:54.357Z,100143.00
2022-08-21T01:01:00.128Z,100147.28
2022-08-21T01:06:00.975Z,100148.19
2022-08-21T01:11:03.214Z,100156.00
2022-08-21T01:16:10.349Z,100150.91
2022-08-21T01:21:15.399Z,100156.97
2022-08-21T01:26:18.453Z,100153.13
2022-08-21T01:31:24.709Z,100152.16
2022-08-21T01:36:29.534Z,100154.34
2022-08-21T01:41:30.161Z,100156.50
2022-08-21T01:46:30.982Z,100158.34
2022-08-21T01:51:33.132Z,100159.34
2022-08-21T01:56:39.218Z,100166.69
2022-08-21T02:01:40.374Z,100166.06
2022-08-21T02:06:42.488Z,100166.97
2022-08-21T02:11:43.989Z,100161.81
2022-08-21T02:16:46.328Z,100166.81
2022-08-21T02:21:51.158Z,100153.38
2022-08-21T02:26:51.782Z,100157.03
2022-08-21T02:31:52.398Z,100145.81
2022-08-21T02:36:59.317Z,100149.41
2022-08-21T02:42:00.818Z,100158.34
2022-08-21T02:47:01.445Z,100153.53
2022-08-21T02:52:03.636Z,100150.03
2022-08-21T02:57:04.500Z,100145.59
2022-08-21T03:02:05.508Z,100145.41
2022-08-21T03:07:11.147Z,100145.94
2022-08-21T03:12:11.942Z,100135.72
2022-08-21T03:17:12.531Z,100139.75
2022-08-21T03:22:14.496Z,100140.34
2022-08-21T03:27:16.309Z,100138.19
2022-08-21T03:32:17.002Z,100137.44
2022-08-21T03:37:19.515Z,100151.81
2022-08-21T03:42:20.123Z,100172.63
2022-08-21T03:47:20.789Z,100181.38
2022-08-21T03:52:22.684Z,100169.13
2022-08-21T03:57:23.899Z,100167.38
2022-08-21T04:02:24.859Z,100175.22
2022-08-21T04:07:26.834Z,100173.78
2022-08-21T04:12:27.549Z,100178.16
2022-08-21T04:17:28.173Z,100171.19
2022-08-21T04:22:30.069Z,100174.91
2022-08-21T04:27:30.704Z,100178.16
2022-08-21T04:32:31.736Z,100180.75
2022-08-21T04:37:33.690Z,100178.84
2022-08-21T04:42:34.770Z,100181.63
2022-08-21T04:47:41.829Z,100174.81
2022-08-21T04:52:55.806Z,100182.41
2022-08-21T04:57:57.271Z,100182.28
2022-08-21T05:03:01.304Z,100192.47
2022-08-21T05:08:05.404Z,100198.44
2022-08-21T05:13:08.132Z,100203.19
2022-08-21T05:18:08.806Z,100195.00
2022-08-21T05:23:12.400Z,100193.75
2022-08-21T05:28:13.623Z,100190.66
2022-08-21T05:33:14.440Z,100191.63
2022-08-21T05:38:18.156Z,100190.19
2022-08-21T05:43:19.213Z,100198.47
2022-08-21T05:48:21.776Z,100192.31
2022-08-21T05:53:25.370Z,100205.34
2022-08-21T05:58:26.060Z,100204.00
2022-08-21T06:03:28.577Z,100202.75
2022-08-21T06:08:31.531Z,100201.88
2022-08-21T06:13:32.248Z,100208.25
2022-08-21T06:18:32.945Z,100223.66
2022-08-21T06:23:35.405Z,100209.81
2022-08-21T06:28:37.917Z,100205.03
2022-08-21T06:33:38.583Z,100204.22
2022-08-21T06:38:41.177Z,100200.00
2022-08-21T06:43:41.860Z,100199.56
2022-08-21T06:48:42.511Z,100191.00
2022-08-21T06:53:45.063Z,100202.34
2022-08-21T06:58:45.805Z,100205.41
2022-08-21T07:03:46.464Z,100203.03
2022-08-21T07:08:48.485Z,100205.88
2022-08-21T07:13:50.028Z,100204.03
2022-08-21T07:18:50.837Z,100204.78
2022-08-21T07:23:53.469Z,100203.97
2022-08-21T07:28:54.982Z,100201.09
2022-08-21T07:33:56.445Z,100197.41
2022-08-21T07:38:58.604Z,100204.00
2022-08-21T07:43:59.870Z,100212.88
2022-08-21T07:49:00.564Z,100219.88
2022-08-21T07:54:02.986Z,100225.63
2022-08-21T07:59:03.824Z,100229.91
2022-08-21T08:04:05.214Z,100234.63
2022-08-21T08:09:07.217Z,100243.06
2022-08-21T08:14:08.041Z,100244.28
2022-08-21T08:19:08.979Z,100237.09
2022-08-21T08:24:18.744Z,100238.78
2022-08-21T08:29:20.290Z,100232.69
2022-08-21T08:34:23.550Z,100234.31
2022-08-21T08:39:29.408Z,100234.31
2022-08-21T08:44:30.595Z,100233.91
2022-08-21T08:49:36.849Z,100241.81
2022-08-21T08:54:44.986Z,100243.66
2022-08-21T08:59:50.010Z,100245.31
2022-08-21T09:04:53.180Z,100243.19
2022-08-21T09:10:08.478Z,100241.56
2022-08-21T09:15:19.330Z,100239.63
2022-08-21T09:20:30.935Z,100238.88
2022-08-21T09:25:38.490Z,100225.00
2022-08-21T09:30:42.918Z,100226.41
2022-08-21T09:35:53.621Z,100216.72
2022-08-21T09:41:01.142Z,100232.41
2022-08-21T09:46:12.865Z,100227.69
2022-08-21T09:51:16.800Z,100222.66
2022-08-21T09:56:45.997Z,100225.06
2022-08-21T10:01:49.695Z,100218.09
2022-08-21T10:06:51.047Z,100223.22
2022-08-21T10:12:00.719Z,100223.72
2022-08-21T10:17:07.250Z,100228.59
2022-08-21T10:22:22.143Z,100229.09
2022-08-21T10:27:33.091Z,100231.53
2022-08-21T10:32:57.825Z,100232.28
2022-08-21T10:38:33.494Z,100222.06
2022-08-21T10:43:51.319Z,100217.25
2022-08-21T10:48:59.744Z,100214.56
2022-08-21T10:54:07.615Z,100217.34
2022-08-21T10:59:27.588Z,100216.94
2022-08-21T11:04:49.069Z,100228.38
2022-08-21T11:09:51.753Z,100224.78
2022-08-21T11:14:57.596Z,100220.53
2022-08-21T11:20:06.490Z,100215.28
2022-08-21T11:25:12.950Z,100213.44
2022-08-21T11:30:16.822Z,100213.84
2022-08-21T11:35:26.565Z,100215.66
2022-08-21T11:40:41.610Z,100202.63
2022-08-21T11:45:48.221Z,100210.19
2022-08-21T11:50:51.530Z,100207.41
2022-08-21T11:56:00.631Z,100197.97
2022-08-21T12:01:07.359Z,100206.47
2022-08-21T12:06:11.323Z,100200.56
2022-08-21T12:11:30.632Z,100193.53
2022-08-21T12:16:36.764Z,100186.31
2022-08-21T12:21:51.627Z,100187.94
2022-08-21T12:26:55.044Z,100187.94
2022-08-21T12:32:01.005Z,100182.75
2022-08-21T12:37:05.470Z,100180.25
2022-08-21T12:42:14.409Z,100171.53
2022-08-21T12:47:19.705Z,100164.63
2022-08-21T12:52:24.082Z,100173.75
2022-08-21T12:57:28.562Z,100169.09
2022-08-21T13:02:36.053Z,100177.13
2022-08-21T13:07:39.545Z,100154.16
2022-08-21T13:12:40.258Z,100168.50
2022-08-21T13:17:49.127Z,100152.69
2022-08-21T13:22:49.984Z,100159.44
2022-08-21T13:28:01.124Z,100156.19
2022-08-21T13:33:12.743Z,100154.47
2022-08-21T13:38:14.037Z,100162.94
2022-08-21T13:43:18.359Z,100157.63
2022-08-21T13:48:27.146Z,100153.84
2022-08-21T13:53:32.574Z,100162.47
2022-08-21T13:58:35.442Z,100167.38
2022-08-21T14:03:44.148Z,100166.94
2022-08-21T14:08:52.769Z,100150.38
2022-08-21T14:13:59.859Z,100154.16
2022-08-21T14:19:22.044Z,100148.56
2022-08-21T14:24:32.147Z,100149.09
2022-08-21T14:29:40.059Z,100148.03
2022-08-21T14:34:44.078Z,100144.16
2022-08-21T14:39:47.599Z,100152.63
2022-08-21T14:44:48.906Z,100146.22
2022-08-21T14:49:51.345Z,100157.00
2022-08-21T14:54:52.067Z,100162.66
2022-08-21T14:59:53.106Z,100147.00
2022-08-21T15:04:55.224Z,100143.28
2022-08-21T15:09:55.951Z,100142.44
2022-08-21T15:14:56.769Z,100145.28
2022-08-21T15:19:58.847Z,100139.31
2022-08-21T15:24:59.594Z,100142.06
2022-08-21T15:30:00.481Z,100138.03
2022-08-21T15:35:02.570Z,100134.69
2022-08-21T15:40:03.859Z,100138.72
2022-08-21T15:45:05.665Z,100141.22
2022-08-21T15:50:10.721Z,100139.38
2022-08-21T15:55:12.142Z,100138.53
2022-08-21T16:00:26.792Z,100137.53
2022-08-21T16:05:29.037Z,100129.03
2022-08-21T16:10:30.908Z,100128.84
2022-08-21T16:15:31.848Z,100127.34
2022-08-21T16:20:34.270Z,100131.72
2022-08-21T16:25:37.117Z,100130.03
2022-08-21T16:30:41.077Z,100135.38
2022-08-21T16:35:43.106Z,100143.03
2022-08-21T16:40:44.360Z,100140.06
2022-08-21T16:45:45.493Z,100137.47
2022-08-21T16:50:50.958Z,100135.34
2022-08-21T16:55:53.021Z,100131.66
2022-08-21T17:00:54.466Z,100130.69
2022-08-21T17:05:56.583Z,100126.06
2022-08-21T17:10:57.861Z,100126.50
2022-08-21T17:15:59.031Z,100124.81
2022-08-21T17:21:01.195Z,100116.69
2022-08-21T17:26:02.118Z,100120.06
2022-08-21T17:31:09.996Z,100127.19
2022-08-21T17:36:12.675Z,100127.53
2022-08-21T17:41:14.646Z,100125.81
2022-08-21T17:46:20.075Z,100130.22
2022-08-21T17:51:22.716Z,100136.19
2022-08-21T17:56:32.987Z,100138.63
2022-08-21T18:01:38.277Z,100142.97
2022-08-21T18:06:40.441Z,100139.06
2022-08-21T18:11:43.784Z,100145.06
2022-08-21T18:16:44.614Z,100149.50
2022-08-21T18:21:46.778Z,100146.34
2022-08-21T18:26:47.624Z,100149.66
2022-08-21T18:31:49.005Z,100144.72
2022-08-21T18:36:52.126Z,100145.19
2022-08-21T18:41:53.358Z,100150.81
2022-08-21T18:46:58.184Z,100158.19
2022-08-21T18:52:03.465Z,100162.00
2022-08-21T18:57:06.022Z,100168.63
2022-08-21T19:02:10.441Z,100174.13
2022-08-21T19:07:14.785Z,100172.44
2022-08-21T19:12:21.834Z,100172.25
2022-08-21T19:17:23.689Z,100176.56
2022-08-21T19:22:25.825Z,100182.31
2022-08-21T19:27:26.851Z,100180.63
2022-08-21T19:32:28.411Z,100183.81
2022-08-21T19:37:30.559Z,100187.13
2022-08-21T19:42:31.386Z,100186.72
2022-08-21T19:47:32.983Z,100182.09
2022-08-21T19:52:35.686Z,100181.72
2022-08-21T19:57:38.457Z,100187.41
2022-08-21T20:02:39.775Z,100182.69
2022-08-21T20:07:50.674Z,100179.06
2022-08-21T20:12:54.008Z,100175.66
2022-08-21T20:17:55.073Z,100174.38
2022-08-21T20:22:59.403Z,100172.31
2022-08-21T20:28:00.805Z,100166.53
2022-08-21T20:33:01.830Z,100174.47
2022-08-21T20:38:04.381Z,100173.28
2022-08-21T20:43:05.619Z,100179.06
2022-08-21T20:48:11.883Z,100176.69
2022-08-21T20:53:17.222Z,100168.53
2022-08-21T20:58:29.607Z,100169.56
2022-08-21T21:03:34.787Z,100170.78
2022-08-21T21:08:41.049Z,100160.63
2022-08-21T21:13:52.378Z,100168.81
2022-08-21T21:18:59.585Z,100181.09
2022-08-21T21:24:07.276Z,100185.03
2022-08-21T21:29:15.493Z,100179.69
2022-08-21T21:34:17.434Z,100180.81
2022-08-21T21:39:37.263Z,100182.69
2022-08-21T21:45:03.905Z,100182.75
2022-08-21T21:50:20.767Z,100186.50
2022-08-21T21:55:34.860Z,100191.75
2022-08-21T22:00:42.726Z,100194.34
2022-08-21T22:06:00.378Z,100197.97
2022-08-21T22:11:23.925Z,100195.44
2022-08-21T22:16:25.564Z,100191.34
2022-08-21T22:21:32.939Z,100200.03
2022-08-21T22:26:44.086Z,100194.59
2022-08-21T22:32:01.000Z,100191.06
2022-08-21T22:37:08.740Z,100188.38
2022-08-21T22:42:14.532Z,100185.81
2022-08-21T22:47:22.299Z,100189.66
2022-08-21T22:52:26.968Z,100197.22
2022-08-21T22:57:31.556Z,100193.19
2022-08-21T23:02:38.750Z,100191.13
2022-08-21T23:07:43.439Z,100193.66
2022-08-21T23:12:49.736Z,100186.91
2022-08-21T23:18:00.998Z,100202.69
2022-08-21T23:23:10.694Z,100192.44
2022-08-21T23:28:24.603Z,100196.38
2022-08-21T23:33:43.786Z,100199.03
2022-08-21T23:39:00.500Z,100193.19
2022-08-21T23:44:12.175Z,100201.16
2022-08-21T23:49:30.259Z,100193.63
2022-08-21T23:54:49.318Z,100183.47
